createdAt,value
2022-07-28T00:12:58.547Z,8134.85156
2022-07-28T00:28:00.765Z,8254.71094
2022-07-28T00:43:03.044Z,7973.0415
2022-07-28T00:58:05.326Z,7494.80273
2022-07-28T01:13:07.774Z,6721.71045
2022-07-28T01:28:11.797Z,5891.08545
2022-07-28T01:43:14.081Z,4980.1543
2022-07-28T01:58:16.373Z,2192.22681
2022-07-28T02:13:18.669Z,964.86749
2022-07-28T02:28:20.966Z,811.44757
2022-07-28T02:43:23.238Z,631.65857
2022-07-28T02:58:25.587Z,435.08932
2022-07-28T03:13:27.886Z,237.32144
2022-07-28T03:28:30.162Z,100.68182
2022-07-28T03:43:32.489Z,32.36201
2022-07-28T03:58:35.020Z,5.99297
2022-07-28T04:13:37.477Z,1.19859
2022-07-28T04:28:39.817Z,0
2022-07-28T04:43:42.114Z,0
2022-07-28T04:58:44.610Z,0
2022-07-28T05:13:47.284Z,0
2022-07-28T05:28:49.576Z,0
2022-07-28T05:43:51.873Z,0
2022-07-28T05:58:55.888Z,0
2022-07-28T06:13:58.129Z,0
2022-07-28T06:29:00.405Z,0
2022-07-28T06:44:02.722Z,0
2022-07-28T06:59:05.055Z,0
2022-07-28T07:14:07.344Z,0
2022-07-28T07:29:09.601Z,0
2022-07-28T07:44:12.511Z,0
2022-07-28T07:59:14.991Z,0
2022-07-28T08:14:18.166Z,0
2022-07-28T08:29:20.802Z,0
2022-07-28T08:44:23.118Z,0
2022-07-28T08:59:25.463Z,0
2022-07-28T09:14:27.765Z,0
2022-07-28T09:29:30.036Z,0
2022-07-28T09:44:32.500Z,0
2022-07-28T09:59:34.837Z,0
2022-07-28T10:14:37.165Z,0
2022-07-28T10:29:39.450Z,0
2022-07-28T10:44:46.544Z,0
2022-07-28T10:59:48.876Z,0
2022-07-28T11:14:51.189Z,0
2022-07-28T11:29:53.830Z,0
2022-07-28T11:44:56.324Z,1.19859
2022-07-28T11:59:58.547Z,9.58875
2022-07-28T12:15:06.359Z,46.74513
2022-07-28T12:30:09.517Z,129.44806
2022-07-28T12:45:11.847Z,244.513
2022-07-28T13:00:14.139Z,379.95404
2022-07-28T13:15:16.520Z,894.15051
2022-07-28T13:30:18.834Z,1301.67212
2022-07-28T13:45:22.173Z,1710.39246
2022-07-28T14:00:26.235Z,2131.09863
2022-07-28T14:15:29.118Z,2574.57812
2022-07-28T14:30:31.418Z,2714.81348
2022-07-28T14:45:33.691Z,3055.21387
2022-07-28T15:01:03.021Z,3509.48071
2022-07-28T15:16:05.400Z,3835.49805
2022-07-28T15:31:08.687Z,3715.63867
2022-07-28T15:46:11.514Z,3894.229
2022-07-28T16:01:13.928Z,4187.88428
2022-07-28T16:16:16.318Z,4889.06152
2022-07-28T16:31:19.266Z,4684.10205
2022-07-28T16:46:21.755Z,4703.2793
2022-07-28T17:01:24.241Z,3636.53149
2022-07-28T17:16:26.627Z,4762.01074
2022-07-28T17:31:29.088Z,4603.79639
2022-07-28T17:46:36.158Z,4504.31299
2022-07-28T18:01:42.399Z,4187.88428
2022-07-28T18:16:47.789Z,4366.47461
2022-07-28T18:31:50.210Z,3520.26807
2022-07-28T18:46:52.673Z,4041.65601
2022-07-28T19:01:55.050Z,4479.14258
2022-07-28T19:16:57.639Z,3135.51978
2022-07-28T19:32:00.086Z,2852.65161
2022-07-28T19:47:02.370Z,4742.83301
2022-07-28T20:02:04.865Z,4631.36377
2022-07-28T20:17:07.378Z,2162.26196
2022-07-28T20:32:09.831Z,4378.46094
2022-07-28T20:47:12.157Z,4644.54834
2022-07-28T21:02:14.853Z,4430.00049
2022-07-28T21:17:17.235Z,4319.72949
2022-07-28T21:32:19.530Z,4196.27441
2022-07-28T21:47:21.901Z,3751.59644
2022-07-28T22:02:24.283Z,5065.25439
2022-07-28T22:17:28.078Z,4721.2583
2022-07-28T22:32:32.093Z,4410.82275
2022-07-28T22:47:34.467Z,4950.18945
2022-07-28T23:02:36.905Z,5252.23535
2022-07-28T23:17:39.246Z,6073.27148
2022-07-28T23:32:41.516Z,6368.12549
2022-07-28T23:47:43.764Z,6973.41504
